sensor_id;sensor_type;location;lat;lon;timestamp;pressure;altitude;pressure_sealevel;temperature;humidity
10476;BME280;26166;48.264;11.436;2022-07-06T00:00:41;96623.09;;;22.57;56.31
10476;BME280;26166;48.264;11.436;2022-07-06T00:03:41;96628.47;;;22.57;56.43
10476;BME280;26166;48.264;11.436;2022-07-06T00:06:41;96622.09;;;22.58;56.51
10476;BME280;26166;48.264;11.436;2022-07-06T00:09:41;96631.97;;;22.58;56.25
10476;BME280;26166;48.264;11.436;2022-07-06T00:12:42;96629.31;;;22.58;56.29
10476;BME280;26166;48.264;11.436;2022-07-06T00:15:42;96628.47;;;22.57;56.37
10476;BME280;26166;48.264;11.436;2022-07-06T00:18:42;96623.94;;;22.58;56.30
10476;BME280;26166;48.264;11.436;2022-07-06T00:21:42;96622.09;;;22.58;56.20
10476;BME280;26166;48.264;11.436;2022-07-06T00:24:43;96633.00;;;22.57;56.24
10476;BME280;26166;48.264;11.436;2022-07-06T00:27:43;96633.81;;;22.57;56.34
10476;BME280;26166;48.264;11.436;2022-07-06T00:30:43;96633.00;;;22.57;56.33
10476;BME280;26166;48.264;11.436;2022-07-06T00:33:43;96631.38;;;22.56;56.45
10476;BME280;26166;48.264;11.436;2022-07-06T00:36:43;96629.53;;;22.56;56.23
10476;BME280;26166;48.264;11.436;2022-07-06T00:39:43;96634.88;;;22.56;55.94
10476;BME280;26166;48.264;11.436;2022-07-06T00:42:45;96634.06;;;22.56;56.17
10476;BME280;26166;48.264;11.436;2022-07-06T00:45:45;96635.94;;;22.55;56.24
10476;BME280;26166;48.264;11.436;2022-07-06T00:48:45;96627.91;;;22.55;55.83
10476;BME280;26166;48.264;11.436;2022-07-06T00:51:45;96627.09;;;22.55;55.85
10476;BME280;26166;48.264;11.436;2022-07-06T00:54:46;96624.41;;;22.55;55.85
10476;BME280;26166;48.264;11.436;2022-07-06T00:57:46;96626.03;;;22.56;55.71
10476;BME280;26166;48.264;11.436;2022-07-06T01:00:46;96624.41;;;22.55;56.03
10476;BME280;26166;48.264;11.436;2022-07-06T01:03:46;96622.53;;;22.55;56.05
10476;BME280;26166;48.264;11.436;2022-07-06T01:06:47;96623.59;;;22.54;55.94
10476;BME280;26166;48.264;11.436;2022-07-06T01:09:47;96616.38;;;22.55;56.13
10476;BME280;26166;48.264;11.436;2022-07-06T01:12:47;96613.69;;;22.55;55.96
10476;BME280;26166;48.264;11.436;2022-07-06T01:15:48;96610.22;;;22.54;55.95
10476;BME280;26166;48.264;11.436;2022-07-06T01:18:48;96606.72;;;22.54;55.68
10476;BME280;26166;48.264;11.436;2022-07-06T01:21:48;96608.56;;;22.53;55.79
10476;BME280;26166;48.264;11.436;2022-07-06T01:24:48;96605.88;;;22.53;55.93
10476;BME280;26166;48.264;11.436;2022-07-06T01:27:48;96611.25;;;22.53;55.88
10476;BME280;26166;48.264;11.436;2022-07-06T01:30:49;96598.91;;;22.52;55.81
10476;BME280;26166;48.264;11.436;2022-07-06T01:33:50;96603.44;;;22.52;55.52
10476;BME280;26166;48.264;11.436;2022-07-06T01:36:50;96596.22;;;22.52;55.81
10476;BME280;26166;48.264;11.436;2022-07-06T01:39:51;96592.75;;;22.52;55.71
10476;BME280;26166;48.264;11.436;2022-07-06T01:42:51;96598.09;;;22.52;55.80
10476;BME280;26166;48.264;11.436;2022-07-06T01:45:51;96605.06;;;22.53;55.58
10476;BME280;26166;48.264;11.436;2022-07-06T01:48:51;96605.06;;;22.53;55.48
10476;BME280;26166;48.264;11.436;2022-07-06T01:51:51;96608.81;;;22.52;55.80
10476;BME280;26166;48.264;11.436;2022-07-06T01:54:51;96606.94;;;22.52;55.49
10476;BME280;26166;48.264;11.436;2022-07-06T01:57:52;96606.94;;;22.52;55.78
10476;BME280;26166;48.264;11.436;2022-07-06T02:00:52;96602.41;;;22.53;55.89
10476;BME280;26166;48.264;11.436;2022-07-06T02:03:52;96600.78;;;22.52;55.62
10476;BME280;26166;48.264;11.436;2022-07-06T02:06:52;96598.09;;;22.52;55.61
10476;BME280;26166;48.264;11.436;2022-07-06T02:09:52;96599.16;;;22.51;55.83
10476;BME280;26166;48.264;11.436;2022-07-06T02:12:52;96607.19;;;22.51;55.72
10476;BME280;26166;48.264;11.436;2022-07-06T02:15:53;96606.13;;;22.52;55.74
10476;BME280;26166;48.264;11.436;2022-07-06T02:18:53;96608.25;;;22.50;55.59
10476;BME280;26166;48.264;11.436;2022-07-06T02:21:53;96613.59;;;22.50;55.51
10476;BME280;26166;48.264;11.436;2022-07-06T02:24:53;96618.94;;;22.50;55.70
10476;BME280;26166;48.264;11.436;2022-07-06T02:27:53;96620.56;;;22.51;55.42
10476;BME280;26166;48.264;11.436;2022-07-06T02:30:54;96623.25;;;22.51;55.64
10476;BME280;26166;48.264;11.436;2022-07-06T02:33:54;96628.59;;;22.51;55.31
10476;BME280;26166;48.264;11.436;2022-07-06T02:36:54;96619.50;;;22.52;55.48
10476;BME280;26166;48.264;11.436;2022-07-06T02:39:54;96621.13;;;22.53;55.38
10476;BME280;26166;48.264;11.436;2022-07-06T02:42:54;96627.28;;;22.53;55.51
10476;BME280;26166;48.264;11.436;2022-07-06T02:45:54;96628.13;;;22.54;55.35
10476;BME280;26166;48.264;11.436;2022-07-06T02:48:55;96625.47;;;22.54;55.54
10476;BME280;26166;48.264;11.436;2022-07-06T02:51:55;96619.06;;;22.55;55.21
10476;BME280;26166;48.264;11.436;2022-07-06T02:54:55;96621.72;;;22.55;55.36
10476;BME280;26166;48.264;11.436;2022-07-06T02:57:55;96620.09;;;22.54;55.34
10476;BME280;26166;48.264;11.436;2022-07-06T03:00:55;96628.13;;;22.54;55.23
10476;BME280;26166;48.264;11.436;2022-07-06T03:03:56;96628.13;;;22.54;55.19
10476;BME280;26166;48.264;11.436;2022-07-06T03:06:56;96630.81;;;22.54;55.29
10476;BME280;26166;48.264;11.436;2022-07-06T03:09:56;96644.19;;;22.54;54.91
10476;BME280;26166;48.264;11.436;2022-07-06T03:12:56;96643.34;;;22.53;55.12
10476;BME280;26166;48.264;11.436;2022-07-06T03:15:56;96644.19;;;22.54;54.92
10476;BME280;26166;48.264;11.436;2022-07-06T03:18:57;96643.34;;;22.53;55.16
10476;BME280;26166;48.264;11.436;2022-07-06T03:21:57;96642.34;;;22.54;55.29
10476;BME280;26166;48.264;11.436;2022-07-06T03:24:58;96639.66;;;22.54;54.96
10476;BME280;26166;48.264;11.436;2022-07-06T03:27:58;96634.31;;;22.54;54.95
10476;BME280;26166;48.264;11.436;2022-07-06T03:30:58;96635.13;;;22.55;55.09
10476;BME280;26166;48.264;11.436;2022-07-06T03:33:59;96627.09;;;22.55;55.16
10476;BME280;26166;48.264;11.436;2022-07-06T03:36:59;96627.91;;;22.55;55.25
10476;BME280;26166;48.264;11.436;2022-07-06T03:39:59;96636.75;;;22.56;55.28
10476;BME280;26166;48.264;11.436;2022-07-06T03:42:59;96635.13;;;22.55;55.10
10476;BME280;26166;48.264;11.436;2022-07-06T03:45:59;96628.13;;;22.54;55.33
10476;BME280;26166;48.264;11.436;2022-07-06T03:49:00;96633.50;;;22.54;55.11
10476;BME280;26166;48.264;11.436;2022-07-06T03:52:00;96632.66;;;22.53;54.88
10476;BME280;26166;48.264;11.436;2022-07-06T03:55:00;96630.81;;;22.54;55.13
10476;BME280;26166;48.264;11.436;2022-07-06T03:58:00;96630.81;;;22.54;54.89
10476;BME280;26166;48.264;11.436;2022-07-06T04:01:01;96639.88;;;22.53;55.20
10476;BME280;26166;48.264;11.436;2022-07-06T04:04:01;96645.22;;;22.53;55.05
10476;BME280;26166;48.264;11.436;2022-07-06T04:07:01;96648.72;;;22.53;55.21
10476;BME280;26166;48.264;11.436;2022-07-06T04:10:01;96647.91;;;22.53;55.25
10476;BME280;26166;48.264;11.436;2022-07-06T04:13:01;96651.38;;;22.53;55.25
10476;BME280;26166;48.264;11.436;2022-07-06T04:16:02;96647.69;;;22.54;54.97
10476;BME280;26166;48.264;11.436;2022-07-06T04:19:02;96653.03;;;22.54;54.91
10476;BME280;26166;48.264;11.436;2022-07-06T04:22:02;96651.19;;;22.55;55.23
10476;BME280;26166;48.264;11.436;2022-07-06T04:25:03;96653.84;;;22.55;54.99
10476;BME280;26166;48.264;11.436;2022-07-06T04:28:03;96653.84;;;22.55;54.93
10476;BME280;26166;48.264;11.436;2022-07-06T04:31:03;96652.22;;;22.54;55.21
10476;BME280;26166;48.264;11.436;2022-07-06T04:34:04;96654.91;;;22.54;55.04
10476;BME280;26166;48.264;11.436;2022-07-06T04:37:05;96661.06;;;22.54;55.17
10476;BME280;26166;48.264;11.436;2022-07-06T04:40:05;96660.25;;;22.54;54.94
10476;BME280;26166;48.264;11.436;2022-07-06T04:43:05;96663.97;;;22.53;54.98
10476;BME280;26166;48.264;11.436;2022-07-06T04:46:06;96663.16;;;22.52;54.51
10476;BME280;26166;48.264;11.436;2022-07-06T04:49:06;96670.38;;;22.52;54.58
10476;BME280;26166;48.264;11.436;2022-07-06T04:52:06;96672.25;;;22.51;54.36
10476;BME280;26166;48.264;11.436;2022-07-06T04:55:08;96666.88;;;22.51;54.40
10476;BME280;26166;48.264;11.436;2022-07-06T04:58:08;96670.38;;;22.52;54.15
10476;BME280;26166;48.264;11.436;2022-07-06T05:01:09;96672.25;;;22.51;54.29
10476;BME280;26166;48.264;11.436;2022-07-06T05:04:09;96672.25;;;22.51;54.40
10476;BME280;26166;48.264;11.436;2022-07-06T05:07:09;96671.44;;;22.51;54.36
10476;BME280;26166;48.264;11.436;2022-07-06T05:10:10;96670.38;;;22.52;54.16
10476;BME280;26166;48.264;11.436;2022-07-06T05:13:10;96665.84;;;22.52;54.33
10476;BME280;26166;48.264;11.436;2022-07-06T05:16:10;96666.66;;;22.53;54.38
10476;BME280;26166;48.264;11.436;2022-07-06T05:19:11;96667.69;;;22.52;54.63
10476;BME280;26166;48.264;11.436;2022-07-06T05:22:11;96667.69;;;22.52;54.20
10476;BME280;26166;48.264;11.436;2022-07-06T05:25:11;96672.25;;;22.51;54.38
10476;BME280;26166;48.264;11.436;2022-07-06T05:28:11;96675.97;;;22.50;54.50
10476;BME280;26166;48.264;11.436;2022-07-06T05:31:11;96677.59;;;22.51;54.19
10476;BME280;26166;48.264;11.436;2022-07-06T05:34:12;96679.47;;;22.51;54.20
10476;BME280;26166;48.264;11.436;2022-07-06T05:37:12;96678.66;;;22.50;54.21
10476;BME280;26166;48.264;11.436;2022-07-06T05:40:12;96675.97;;;22.50;54.46
10476;BME280;26166;48.264;11.436;2022-07-06T05:43:12;96680.50;;;22.50;54.23
10476;BME280;26166;48.264;11.436;2022-07-06T05:46:13;96683.19;;;22.50;54.47
10476;BME280;26166;48.264;11.436;2022-07-06T05:49:13;96688.53;;;22.50;54.32
10476;BME280;26166;48.264;11.436;2022-07-06T05:52:32;96691.22;;;22.50;54.43
10476;BME280;26166;48.264;11.436;2022-07-06T05:55:32;96696.56;;;22.50;54.65
10476;BME280;26166;48.264;11.436;2022-07-06T05:58:32;96699.25;;;22.50;54.54
10476;BME280;26166;48.264;11.436;2022-07-06T06:01:32;96694.72;;;22.50;54.49
10476;BME280;26166;48.264;11.436;2022-07-06T06:04:33;96701.94;;;22.50;54.60
10476;BME280;26166;48.264;11.436;2022-07-06T06:07:33;96695.75;;;22.49;54.43
10476;BME280;26166;48.264;11.436;2022-07-06T06:10:34;96696.56;;;22.50;54.42
10476;BME280;26166;48.264;11.436;2022-07-06T06:13:35;96700.28;;;22.49;54.19
10476;BME280;26166;48.264;11.436;2022-07-06T06:16:35;96699.47;;;22.48;54.17
10476;BME280;26166;48.264;11.436;2022-07-06T06:19:35;96706.69;;;22.48;54.47
10476;BME280;26166;48.264;11.436;2022-07-06T06:22:57;96704.00;;;22.48;54.07
10476;BME280;26166;48.264;11.436;2022-07-06T06:25:56;96705.88;;;22.47;54.00
10476;BME280;26166;48.264;11.436;2022-07-06T06:28:57;96707.72;;;22.47;53.53
10476;BME280;26166;48.264;11.436;2022-07-06T06:31:57;96705.06;;;22.47;53.80
10476;BME280;26166;48.264;11.436;2022-07-06T06:34:57;96706.09;;;22.46;53.62
10476;BME280;26166;48.264;11.436;2022-07-06T06:37:57;96707.72;;;22.47;53.64
10476;BME280;26166;48.264;11.436;2022-07-06T06:40:57;96701.31;;;22.48;53.33
10476;BME280;26166;48.264;11.436;2022-07-06T06:43:57;96704.00;;;22.48;53.72
10476;BME280;26166;48.264;11.436;2022-07-06T06:46:58;96698.66;;;22.48;53.37
10476;BME280;26166;48.264;11.436;2022-07-06T06:49:58;96705.63;;;22.49;53.54
10476;BME280;26166;48.264;11.436;2022-07-06T06:52:58;96710.97;;;22.49;53.58
10476;BME280;26166;48.264;11.436;2022-07-06T06:55:59;96704.00;;;22.48;53.57
10476;BME280;26166;48.264;11.436;2022-07-06T06:58:59;96708.31;;;22.49;53.47
10476;BME280;26166;48.264;11.436;2022-07-06T07:02:01;96704.81;;;22.48;53.09
10476;BME280;26166;48.264;11.436;2022-07-06T07:05:02;96706.47;;;22.49;53.29
10476;BME280;26166;48.264;11.436;2022-07-06T07:08:02;96698.66;;;22.48;53.38
10476;BME280;26166;48.264;11.436;2022-07-06T07:11:02;96705.63;;;22.49;53.10
10476;BME280;26166;48.264;11.436;2022-07-06T07:14:03;96697.59;;;22.49;53.14
10476;BME280;26166;48.264;11.436;2022-07-06T07:17:03;96705.63;;;22.49;53.08
10476;BME280;26166;48.264;11.436;2022-07-06T07:20:03;96702.94;;;22.49;53.33
10476;BME280;26166;48.264;11.436;2022-07-06T07:23:04;96708.91;;;22.51;53.39
10476;BME280;26166;48.264;11.436;2022-07-06T07:26:04;96707.28;;;22.50;53.11
10476;BME280;26166;48.264;11.436;2022-07-06T07:29:04;96702.75;;;22.50;53.34
10476;BME280;26166;48.264;11.436;2022-07-06T07:32:04;96701.94;;;22.50;53.41
10476;BME280;26166;48.264;11.436;2022-07-06T07:35:05;96707.03;;;22.51;53.39
10476;BME280;26166;48.264;11.436;2022-07-06T07:38:05;96704.34;;;22.51;53.28
10476;BME280;26166;48.264;11.436;2022-07-06T07:41:05;96709.72;;;22.51;53.53
10476;BME280;26166;48.264;11.436;2022-07-06T07:44:06;96714.25;;;22.51;53.49
10476;BME280;26166;48.264;11.436;2022-07-06T07:47:06;96703.56;;;22.51;53.41
10476;BME280;26166;48.264;11.436;2022-07-06T07:50:06;96709.97;;;22.50;53.41
10476;BME280;26166;48.264;11.436;2022-07-06T07:53:07;96701.13;;;22.49;53.12
10476;BME280;26166;48.264;11.436;2022-07-06T07:56:07;96702.94;;;22.49;53.36
10476;BME280;26166;48.264;11.436;2022-07-06T07:59:07;96711.81;;;22.49;53.29
10476;BME280;26166;48.264;11.436;2022-07-06T08:02:08;96706.47;;;22.49;53.56
10476;BME280;26166;48.264;11.436;2022-07-06T08:05:08;96706.47;;;22.49;53.28
10476;BME280;26166;48.264;11.436;2022-07-06T08:08:08;96702.94;;;22.49;53.42
10476;BME280;26166;48.264;11.436;2022-07-06T08:11:08;96708.31;;;22.49;53.66
10476;BME280;26166;48.264;11.436;2022-07-06T08:14:09;96711.81;;;22.49;53.68
10476;BME280;26166;48.264;11.436;2022-07-06T08:17:10;96707.50;;;22.48;53.83
10476;BME280;26166;48.264;11.436;2022-07-06T08:20:10;96710.97;;;22.49;53.61
10476;BME280;26166;48.264;11.436;2022-07-06T08:23:11;96710.16;;;22.48;53.90
10476;BME280;26166;48.264;11.436;2022-07-06T08:26:11;96712.63;;;22.50;53.69
10476;BME280;26166;48.264;11.436;2022-07-06T08:29:11;96709.97;;;22.50;53.78
10476;BME280;26166;48.264;11.436;2022-07-06T08:32:11;96711.81;;;22.49;53.71
10476;BME280;26166;48.264;11.436;2022-07-06T08:35:12;96712.63;;;22.50;53.86
10476;BME280;26166;48.264;11.436;2022-07-06T08:38:12;96707.28;;;22.50;53.57
10476;BME280;26166;48.264;11.436;2022-07-06T08:41:14;96718.81;;;22.50;53.58
10476;BME280;26166;48.264;11.436;2022-07-06T08:44:15;96709.16;;;22.49;53.63
10476;BME280;26166;48.264;11.436;2022-07-06T08:47:15;96708.09;;;22.50;53.88
10476;BME280;26166;48.264;11.436;2022-07-06T08:50:16;96704.59;;;22.50;53.75
10476;BME280;26166;48.264;11.436;2022-07-06T08:53:20;96702.94;;;22.49;53.69
10476;BME280;26166;48.264;11.436;2022-07-06T08:56:20;96711.81;;;22.49;53.88
10476;BME280;26166;48.264;11.436;2022-07-06T08:59:20;96715.31;;;22.50;53.68
10476;BME280;26166;48.264;11.436;2022-07-06T09:02:22;96714.25;;;22.51;54.05
10476;BME280;26166;48.264;11.436;2022-07-06T09:05:23;96724.97;;;22.51;53.65
10476;BME280;26166;48.264;11.436;2022-07-06T09:08:24;96721.47;;;22.50;54.01
10476;BME280;26166;48.264;11.436;2022-07-06T09:11:25;96716.13;;;22.50;53.82
10476;BME280;26166;48.264;11.436;2022-07-06T09:14:25;96720.41;;;22.51;53.74
10476;BME280;26166;48.264;11.436;2022-07-06T09:17:29;96724.97;;;22.51;53.98
10476;BME280;26166;48.264;11.436;2022-07-06T09:20:32;96722.84;;;22.53;53.98
10476;BME280;26166;48.264;11.436;2022-07-06T09:23:32;96721.22;;;22.52;54.00
10476;BME280;26166;48.264;11.436;2022-07-06T09:26:32;96723.09;;;22.51;53.85
10476;BME280;26166;48.264;11.436;2022-07-06T09:29:33;96722.28;;;22.51;54.16
10476;BME280;26166;48.264;11.436;2022-07-06T09:32:40;96728.44;;;22.51;53.87
10476;BME280;26166;48.264;11.436;2022-07-06T09:35:41;96724.16;;;22.50;54.16
10476;BME280;26166;48.264;11.436;2022-07-06T09:38:41;96724.16;;;22.50;54.15
10476;BME280;26166;48.264;11.436;2022-07-06T09:41:42;96734.03;;;22.50;54.21
10476;BME280;26166;48.264;11.436;2022-07-06T09:44:42;96728.69;;;22.50;54.13
10476;BME280;26166;48.264;11.436;2022-07-06T09:47:46;96734.03;;;22.50;54.23
10476;BME280;26166;48.264;11.436;2022-07-06T09:50:47;96738.59;;;22.49;54.13
10476;BME280;26166;48.264;11.436;2022-07-06T09:53:50;96744.75;;;22.50;54.21
10476;BME280;26166;48.264;11.436;2022-07-06T09:56:51;96726.81;;;22.50;54.31
10476;BME280;26166;48.264;11.436;2022-07-06T09:59:52;96744.75;;;22.50;53.97
10476;BME280;26166;48.264;11.436;2022-07-06T10:02:52;96735.66;;;22.51;54.30
10476;BME280;26166;48.264;11.436;2022-07-06T10:05:53;96724.97;;;22.51;54.40
10476;BME280;26166;48.264;11.436;2022-07-06T10:08:55;96723.34;;;22.50;54.45
10476;BME280;26166;48.264;11.436;2022-07-06T10:11:58;96735.66;;;22.51;54.05
10476;BME280;26166;48.264;11.436;2022-07-06T10:14:58;96734.03;;;22.50;54.15
10476;BME280;26166;48.264;11.436;2022-07-06T10:18:00;96738.34;;;22.51;54.36
10476;BME280;26166;48.264;11.436;2022-07-06T10:21:00;96723.34;;;22.50;54.08
10476;BME280;26166;48.264;11.436;2022-07-06T10:24:01;96734.03;;;22.50;54.19
10476;BME280;26166;48.264;11.436;2022-07-06T10:27:02;96727.03;;;22.49;54.52
10476;BME280;26166;48.264;11.436;2022-07-06T10:30:02;96727.03;;;22.49;54.21
10476;BME280;26166;48.264;11.436;2022-07-06T10:33:02;96714.72;;;22.48;53.95
10476;BME280;26166;48.264;11.436;2022-07-06T10:36:03;96717.38;;;22.48;54.35
10476;BME280;26166;48.264;11.436;2022-07-06T10:39:03;96717.38;;;22.48;54.42
10476;BME280;26166;48.264;11.436;2022-07-06T10:42:40;96720.88;;;22.48;54.49
10476;BME280;26166;48.264;11.436;2022-07-06T10:48:44;96724.38;;;22.49;54.45
10476;BME280;26166;48.264;11.436;2022-07-06T10:51:44;96723.56;;;22.48;54.14
10476;BME280;26166;48.264;11.436;2022-07-06T10:54:44;96720.66;;;22.50;54.09
10476;BME280;26166;48.264;11.436;2022-07-06T10:57:55;96717.19;;;22.49;54.32
10476;BME280;26166;48.264;11.436;2022-07-06T11:00:55;96717.19;;;22.49;54.39
10476;BME280;26166;48.264;11.436;2022-07-06T11:06:56;96710.53;;;22.52;54.48
10476;BME280;26166;48.264;11.436;2022-07-06T11:09:57;96703.56;;;22.51;54.17
10476;BME280;26166;48.264;11.436;2022-07-06T11:13:00;96713.44;;;22.50;54.01
10476;BME280;26166;48.264;11.436;2022-07-06T11:16:01;96703.56;;;22.51;54.35
10476;BME280;26166;48.264;11.436;2022-07-06T11:19:14;96704.59;;;22.50;54.42
10476;BME280;26166;48.264;11.436;2022-07-06T11:22:15;96707.28;;;22.50;54.29
10476;BME280;26166;48.264;11.436;2022-07-06T11:25:15;96709.97;;;22.50;53.96
10476;BME280;26166;48.264;11.436;2022-07-06T11:28:17;96706.47;;;22.49;54.38
10476;BME280;26166;48.264;11.436;2022-07-06T11:31:17;96702.13;;;22.48;54.08
10476;BME280;26166;48.264;11.436;2022-07-06T11:34:27;96704.81;;;22.48;54.33
10476;BME280;26166;48.264;11.436;2022-07-06T11:37:28;96709.16;;;22.49;54.87
10476;BME280;26166;48.264;11.436;2022-07-06T11:40:28;96705.16;;;22.52;55.32
10476;BME280;26166;48.264;11.436;2022-07-06T11:43:29;96701.00;;;22.56;55.02
10476;BME280;26166;48.264;11.436;2022-07-06T11:46:31;96702.16;;;22.60;54.52
10476;BME280;26166;48.264;11.436;2022-07-06T11:49:32;96696.81;;;22.60;54.60
10476;BME280;26166;48.264;11.436;2022-07-06T11:52:34;96701.09;;;22.61;54.50
10476;BME280;26166;48.264;11.436;2022-07-06T11:55:34;96682.38;;;22.61;54.26
10476;BME280;26166;48.264;11.436;2022-07-06T11:58:34;96692.50;;;22.59;54.58
10476;BME280;26166;48.264;11.436;2022-07-06T12:01:35;96695.19;;;22.59;54.42
10476;BME280;26166;48.264;11.436;2022-07-06T12:04:37;96689.22;;;22.57;54.55
10476;BME280;26166;48.264;11.436;2022-07-06T12:07:37;96679.56;;;22.56;54.69
10476;BME280;26166;48.264;11.436;2022-07-06T12:10:37;96683.31;;;22.55;54.73
10476;BME280;26166;48.264;11.436;2022-07-06T12:13:38;96683.31;;;22.55;54.75
10476;BME280;26166;48.264;11.436;2022-07-06T12:16:41;96670.97;;;22.54;54.75
10476;BME280;26166;48.264;11.436;2022-07-06T12:19:41;96674.69;;;22.53;54.68
10476;BME280;26166;48.264;11.436;2022-07-06T12:22:42;96669.31;;;22.53;54.58
10476;BME280;26166;48.264;11.436;2022-07-06T12:25:44;96658.63;;;22.53;54.52
10476;BME280;26166;48.264;11.436;2022-07-06T12:28:44;96664.78;;;22.53;54.71
10476;BME280;26166;48.264;11.436;2022-07-06T12:31:52;96657.59;;;22.54;54.40
10476;BME280;26166;48.264;11.436;2022-07-06T12:35:10;96659.41;;;22.53;54.63
10476;BME280;26166;48.264;11.436;2022-07-06T12:38:11;96656.53;;;22.55;55.91
10476;BME280;26166;48.264;11.436;2022-07-06T12:41:22;96655.59;;;22.61;56.38
10476;BME280;26166;48.264;11.436;2022-07-06T12:44:23;96644.66;;;22.98;57.05
10476;BME280;26166;48.264;11.436;2022-07-06T12:47:24;96649.38;;;23.88;54.54
10476;BME280;26166;48.264;11.436;2022-07-06T12:50:34;96641.44;;;25.16;50.85
10476;BME280;26166;48.264;11.436;2022-07-06T12:53:35;96637.53;;;26.00;49.13
10476;BME280;26166;48.264;11.436;2022-07-06T12:56:35;96631.81;;;27.03;46.83
10476;BME280;26166;48.264;11.436;2022-07-06T12:59:39;96626.09;;;27.52;45.78
10476;BME280;26166;48.264;11.436;2022-07-06T13:02:40;96623.56;;;28.44;43.28
10476;BME280;26166;48.264;11.436;2022-07-06T13:05:48;96625.41;;;28.58;43.09
10476;BME280;26166;48.264;11.436;2022-07-06T13:08:48;96626.22;;;28.74;41.45
10476;BME280;26166;48.264;11.436;2022-07-06T13:11:49;96629.47;;;28.20;42.39
10476;BME280;26166;48.264;11.436;2022-07-06T13:14:49;96626.75;;;28.00;41.99
10476;BME280;26166;48.264;11.436;2022-07-06T13:17:49;96626.09;;;27.62;42.55
10476;BME280;26166;48.264;11.436;2022-07-06T13:20:49;96629.19;;;27.13;42.62
10476;BME280;26166;48.264;11.436;2022-07-06T13:23:50;96638.84;;;26.61;43.35
10476;BME280;26166;48.264;11.436;2022-07-06T13:26:50;96633.75;;;25.74;45.09
10476;BME280;26166;48.264;11.436;2022-07-06T13:29:50;96632.41;;;25.27;46.33
10476;BME280;26166;48.264;11.436;2022-07-06T13:32:50;96619.69;;;25.01;46.96
10476;BME280;26166;48.264;11.436;2022-07-06T13:35:51;96618.94;;;24.83;47.52
10476;BME280;26166;48.264;11.436;2022-07-06T13:38:51;96609.06;;;24.67;47.78
10476;BME280;26166;48.264;11.436;2022-07-06T13:41:51;96615.34;;;24.56;48.43
10476;BME280;26166;48.264;11.436;2022-07-06T13:44:51;96613.00;;;24.42;48.81
10476;BME280;26166;48.264;11.436;2022-07-06T13:47:51;96618.19;;;24.32;48.86
10476;BME280;26166;48.264;11.436;2022-07-06T13:50:51;96619.06;;;24.21;49.14
10476;BME280;26166;48.264;11.436;2022-07-06T13:53:52;96622.47;;;24.16;49.17
10476;BME280;26166;48.264;11.436;2022-07-06T13:56:52;96609.72;;;24.07;49.71
10476;BME280;26166;48.264;11.436;2022-07-06T13:59:52;96611.50;;;24.01;49.81
10476;BME280;26166;48.264;11.436;2022-07-06T14:02:53;96605.00;;;23.97;50.03
10476;BME280;26166;48.264;11.436;2022-07-06T14:05:53;96615.88;;;23.90;49.84
10476;BME280;26166;48.264;11.436;2022-07-06T14:08:54;96603.88;;;23.93;51.01
10476;BME280;26166;48.264;11.436;2022-07-06T14:11:54;96606.00;;;23.91;50.57
10476;BME280;26166;48.264;11.436;2022-07-06T14:14:55;96612.31;;;23.85;50.58
10476;BME280;26166;48.264;11.436;2022-07-06T14:17:55;96603.38;;;23.79;51.06
10476;BME280;26166;48.264;11.436;2022-07-06T14:20:55;96608.88;;;23.73;51.02
10476;BME280;26166;48.264;11.436;2022-07-06T14:23:55;96605.28;;;23.67;51.39
10476;BME280;26166;48.264;11.436;2022-07-06T14:26:55;96606.78;;;23.63;51.43
10476;BME280;26166;48.264;11.436;2022-07-06T14:29:55;96597.03;;;23.57;51.47
10476;BME280;26166;48.264;11.436;2022-07-06T14:32:56;96595.88;;;23.53;51.94
10476;BME280;26166;48.264;11.436;2022-07-06T14:35:56;96590.19;;;23.49;52.21
10476;BME280;26166;48.264;11.436;2022-07-06T14:38:56;96585.53;;;23.45;52.08
10476;BME280;26166;48.264;11.436;2022-07-06T14:41:56;96585.22;;;23.41;52.20
10476;BME280;26166;48.264;11.436;2022-07-06T14:44:56;96590.25;;;23.37;52.05
10476;BME280;26166;48.264;11.436;2022-07-06T14:47:57;96580.00;;;23.34;52.29
10476;BME280;26166;48.264;11.436;2022-07-06T14:50:57;96583.16;;;23.31;52.43
10476;BME280;26166;48.264;11.436;2022-07-06T14:53:58;96572.91;;;23.28;52.47
10476;BME280;26166;48.264;11.436;2022-07-06T14:56:58;96576.09;;;23.25;52.49
10476;BME280;26166;48.264;11.436;2022-07-06T14:59:58;96577.16;;;23.24;52.35
10476;BME280;26166;48.264;11.436;2022-07-06T15:02:58;96584.03;;;23.20;52.66
10476;BME280;26166;48.264;11.436;2022-07-06T15:05:59;96580.75;;;23.18;52.51
10476;BME280;26166;48.264;11.436;2022-07-06T15:08:59;96576.72;;;23.15;52.90
10476;BME280;26166;48.264;11.436;2022-07-06T15:12:04;96584.97;;;23.14;52.65
10476;BME280;26166;48.264;11.436;2022-07-06T15:15:04;96582.78;;;23.11;52.98
10476;BME280;26166;48.264;11.436;2022-07-06T15:18:04;96573.91;;;23.10;52.85
10476;BME280;26166;48.264;11.436;2022-07-06T15:21:05;96567.19;;;23.08;53.15
10476;BME280;26166;48.264;11.436;2022-07-06T15:24:05;96573.00;;;23.05;53.29
10476;BME280;26166;48.264;11.436;2022-07-06T15:27:06;96574.06;;;23.04;53.14
10476;BME280;26166;48.264;11.436;2022-07-06T15:30:06;96568.09;;;23.02;53.17
10476;BME280;26166;48.264;11.436;2022-07-06T15:33:06;96569.16;;;23.01;53.18
10476;BME280;26166;48.264;11.436;2022-07-06T15:36:07;96566.72;;;22.99;53.41
10476;BME280;26166;48.264;11.436;2022-07-06T15:39:07;96569.66;;;22.98;53.25
10476;BME280;26166;48.264;11.436;2022-07-06T15:42:07;96559.97;;;22.97;53.08
10476;BME280;26166;48.264;11.436;2022-07-06T15:45:08;96569.06;;;22.96;53.16
10476;BME280;26166;48.264;11.436;2022-07-06T15:48:08;96566.38;;;22.96;53.14
10476;BME280;26166;48.264;11.436;2022-07-06T15:51:08;96558.81;;;22.92;53.13